sensor_id;sensor_type;location;lat;lon;timestamp;pressure;altitude;pressure_sealevel;temperature;humidity
74561;BME280;62979;55.720;37.606;2023-08-07T00:01:20;99728.13;;;27.14;49.25
74561;BME280;62979;55.720;37.606;2023-08-07T00:03:47;99725.69;;;27.11;49.49
74561;BME280;62979;55.720;37.606;2023-08-07T00:06:15;99724.72;;;27.02;49.66
74561;BME280;62979;55.720;37.606;2023-08-07T00:08:42;99726.53;;;26.92;50.04
74561;BME280;62979;55.720;37.606;2023-08-07T00:11:09;99721.63;;;26.87;50.18
74561;BME280;62979;55.720;37.606;2023-08-07T00:13:36;99721.75;;;26.86;50.45
74561;BME280;62979;55.720;37.606;2023-08-07T00:16:03;99730.94;;;26.83;50.43
74561;BME280;62979;55.720;37.606;2023-08-07T00:18:30;99732.38;;;26.78;50.54
74561;BME280;62979;55.720;37.606;2023-08-07T00:20:57;99733.19;;;26.78;50.91
74561;BME280;62979;55.720;37.606;2023-08-07T00:23:26;99728.69;;;26.69;50.87
74561;BME280;62979;55.720;37.606;2023-08-07T00:25:52;99725.00;;;26.70;51.12
74561;BME280;62979;55.720;37.606;2023-08-07T00:28:19;99726.00;;;26.69;51.34
74561;BME280;62979;55.720;37.606;2023-08-07T00:30:46;99729.81;;;26.76;50.82
74561;BME280;62979;55.720;37.606;2023-08-07T00:33:13;99730.09;;;26.73;50.83
74561;BME280;62979;55.720;37.606;2023-08-07T00:35:40;99718.22;;;26.66;50.84
74561;BME280;62979;55.720;37.606;2023-08-07T00:38:07;99720.75;;;26.67;50.79
74561;BME280;62979;55.720;37.606;2023-08-07T00:40:39;99720.50;;;26.61;50.97
74561;BME280;62979;55.720;37.606;2023-08-07T00:43:06;99727.66;;;26.60;50.90
74561;BME280;62979;55.720;37.606;2023-08-07T00:45:34;99716.22;;;26.48;50.85
74561;BME280;62979;55.720;37.606;2023-08-07T00:48:04;99720.84;;;26.46;51.15
74561;BME280;62979;55.720;37.606;2023-08-07T00:50:31;99726.63;;;26.42;51.06
74561;BME280;62979;55.720;37.606;2023-08-07T00:52:59;99722.81;;;26.44;50.79
74561;BME280;62979;55.720;37.606;2023-08-07T00:55:27;99719.56;;;26.51;51.17
74561;BME280;62979;55.720;37.606;2023-08-07T00:57:56;99728.63;;;26.50;50.94
74561;BME280;62979;55.720;37.606;2023-08-07T01:00:25;99720.16;;;26.44;50.91
74561;BME280;62979;55.720;37.606;2023-08-07T01:02:54;99711.50;;;26.41;51.02
74561;BME280;62979;55.720;37.606;2023-08-07T01:05:23;99709.13;;;26.38;50.86
74561;BME280;62979;55.720;37.606;2023-08-07T01:07:53;99717.31;;;26.36;50.80
74561;BME280;62979;55.720;37.606;2023-08-07T01:10:25;99705.59;;;26.37;50.98
74561;BME280;62979;55.720;37.606;2023-08-07T01:13:10;99699.94;;;26.40;50.75
74561;BME280;62979;55.720;37.606;2023-08-07T01:15:43;99699.22;;;26.38;50.94
74561;BME280;62979;55.720;37.606;2023-08-07T01:18:11;99693.84;;;26.29;51.13
74561;BME280;62979;55.720;37.606;2023-08-07T01:20:40;99704.56;;;26.29;50.57
74561;BME280;62979;55.720;37.606;2023-08-07T01:23:08;99700.94;;;26.30;50.91
74561;BME280;62979;55.720;37.606;2023-08-07T01:25:35;99691.34;;;26.27;51.12
74561;BME280;62979;55.720;37.606;2023-08-07T01:28:08;99692.88;;;26.30;51.06
74561;BME280;62979;55.720;37.606;2023-08-07T01:30:45;99687.38;;;26.21;51.09
74561;BME280;62979;55.720;37.606;2023-08-07T01:33:22;99689.34;;;26.19;51.28
74561;BME280;62979;55.720;37.606;2023-08-07T01:35:56;99688.75;;;26.16;51.32
74561;BME280;62979;55.720;37.606;2023-08-07T01:38:28;99690.28;;;26.09;51.63
74561;BME280;62979;55.720;37.606;2023-08-07T01:40:56;99693.53;;;26.02;51.92
74561;BME280;62979;55.720;37.606;2023-08-07T01:43:24;99697.50;;;26.08;51.74
74561;BME280;62979;55.720;37.606;2023-08-07T01:45:51;99687.75;;;26.07;51.61
74561;BME280;62979;55.720;37.606;2023-08-07T01:48:18;99686.75;;;26.08;51.70
74561;BME280;62979;55.720;37.606;2023-08-07T01:50:45;99690.16;;;26.10;51.59
74561;BME280;62979;55.720;37.606;2023-08-07T01:53:13;99689.56;;;26.07;51.75
74561;BME280;62979;55.720;37.606;2023-08-07T01:55:41;99683.53;;;26.04;51.62
74561;BME280;62979;55.720;37.606;2023-08-07T01:58:08;99686.22;;;26.04;51.56
74561;BME280;62979;55.720;37.606;2023-08-07T02:00:35;99682.38;;;25.97;51.69
74561;BME280;62979;55.720;37.606;2023-08-07T02:03:02;99681.66;;;25.95;51.88
74561;BME280;62979;55.720;37.606;2023-08-07T02:05:29;99686.03;;;25.96;51.87
74561;BME280;62979;55.720;37.606;2023-08-07T02:07:56;99686.19;;;25.95;51.71
74561;BME280;62979;55.720;37.606;2023-08-07T02:10:23;99696.03;;;25.94;51.74
74561;BME280;62979;55.720;37.606;2023-08-07T02:12:52;99689.97;;;25.92;52.07
74561;BME280;62979;55.720;37.606;2023-08-07T02:15:18;99683.34;;;25.96;51.65
74561;BME280;62979;55.720;37.606;2023-08-07T02:17:45;99694.66;;;26.00;51.63
74561;BME280;62979;55.720;37.606;2023-08-07T02:20:12;99685.63;;;26.01;51.51
74561;BME280;62979;55.720;37.606;2023-08-07T02:22:39;99683.66;;;26.03;51.83
74561;BME280;62979;55.720;37.606;2023-08-07T02:25:07;99684.50;;;26.03;51.65
74561;BME280;62979;55.720;37.606;2023-08-07T02:27:34;99676.63;;;26.02;51.85
74561;BME280;62979;55.720;37.606;2023-08-07T02:30:03;99684.19;;;25.97;51.70
74561;BME280;62979;55.720;37.606;2023-08-07T02:32:31;99682.63;;;25.94;51.67
74561;BME280;62979;55.720;37.606;2023-08-07T02:34:58;99684.34;;;25.95;51.57
74561;BME280;62979;55.720;37.606;2023-08-07T02:37:26;99681.94;;;25.92;51.65
74561;BME280;62979;55.720;37.606;2023-08-07T02:39:53;99690.22;;;25.89;51.65
74561;BME280;62979;55.720;37.606;2023-08-07T02:42:20;99684.41;;;25.84;51.67
74561;BME280;62979;55.720;37.606;2023-08-07T02:44:47;99672.25;;;25.80;51.52
74561;BME280;62979;55.720;37.606;2023-08-07T02:47:15;99671.00;;;25.84;51.80
74561;BME280;62979;55.720;37.606;2023-08-07T02:49:42;99670.28;;;25.82;51.81
74561;BME280;62979;55.720;37.606;2023-08-07T02:52:08;99670.16;;;25.83;52.08
74561;BME280;62979;55.720;37.606;2023-08-07T02:54:35;99673.59;;;25.86;51.79
74561;BME280;62979;55.720;37.606;2023-08-07T02:57:02;99684.19;;;25.97;51.54
74561;BME280;62979;55.720;37.606;2023-08-07T02:59:29;99681.38;;;25.98;51.36
74561;BME280;62979;55.720;37.606;2023-08-07T03:01:56;99680.81;;;25.95;51.46
74561;BME280;62979;55.720;37.606;2023-08-07T03:04:25;99680.94;;;25.93;51.49
74561;BME280;62979;55.720;37.606;2023-08-07T03:06:52;99677.97;;;25.96;51.31
74561;BME280;62979;55.720;37.606;2023-08-07T03:09:20;99674.19;;;25.99;51.19
74561;BME280;62979;55.720;37.606;2023-08-07T03:11:46;99672.19;;;25.91;51.16
74561;BME280;62979;55.720;37.606;2023-08-07T03:14:13;99665.59;;;25.95;51.10
74561;BME280;62979;55.720;37.606;2023-08-07T03:16:40;99671.75;;;25.86;51.26
74561;BME280;62979;55.720;37.606;2023-08-07T03:19:07;99655.16;;;25.92;51.19
74561;BME280;62979;55.720;37.606;2023-08-07T03:21:35;99672.50;;;25.98;50.92
74561;BME280;62979;55.720;37.606;2023-08-07T03:24:02;99670.78;;;25.97;50.85
74561;BME280;62979;55.720;37.606;2023-08-07T03:26:29;99674.63;;;26.04;50.83
74561;BME280;62979;55.720;37.606;2023-08-07T03:28:56;99667.16;;;26.08;50.59
74561;BME280;62979;55.720;37.606;2023-08-07T03:31:23;99671.84;;;26.15;50.53
74561;BME280;62979;55.720;37.606;2023-08-07T03:33:50;99676.06;;;26.18;50.38
74561;BME280;62979;55.720;37.606;2023-08-07T03:36:17;99675.06;;;26.19;50.38
74561;BME280;62979;55.720;37.606;2023-08-07T03:38:45;99670.59;;;26.19;50.26
74561;BME280;62979;55.720;37.606;2023-08-07T03:41:12;99663.34;;;26.00;50.43
74561;BME280;62979;55.720;37.606;2023-08-07T03:43:39;99659.94;;;25.98;50.40
74561;BME280;62979;55.720;37.606;2023-08-07T03:46:06;99666.13;;;25.99;50.44
74561;BME280;62979;55.720;37.606;2023-08-07T03:48:32;99672.81;;;26.04;50.54
74561;BME280;62979;55.720;37.606;2023-08-07T03:51:03;99665.31;;;26.08;50.52
74561;BME280;62979;55.720;37.606;2023-08-07T03:53:30;99674.22;;;26.09;50.36
74561;BME280;62979;55.720;37.606;2023-08-07T03:55:58;99663.91;;;26.04;50.64
74561;BME280;62979;55.720;37.606;2023-08-07T03:58:25;99670.69;;;26.08;50.30
74561;BME280;62979;55.720;37.606;2023-08-07T04:00:52;99671.13;;;26.13;50.46
74561;BME280;62979;55.720;37.606;2023-08-07T04:03:20;99660.81;;;26.18;50.33
74561;BME280;62979;55.720;37.606;2023-08-07T04:05:47;99656.88;;;26.22;49.92
74561;BME280;62979;55.720;37.606;2023-08-07T04:08:17;99663.41;;;26.30;49.88
74561;BME280;62979;55.720;37.606;2023-08-07T04:10:44;99663.94;;;26.23;49.79
74561;BME280;62979;55.720;37.606;2023-08-07T04:13:13;99664.34;;;26.19;49.90
74561;BME280;62979;55.720;37.606;2023-08-07T04:15:40;99666.91;;;26.30;49.90
74561;BME280;62979;55.720;37.606;2023-08-07T04:18:07;99669.31;;;26.33;49.72
74561;BME280;62979;55.720;37.606;2023-08-07T04:20:34;99666.50;;;26.35;49.71
74561;BME280;62979;55.720;37.606;2023-08-07T04:23:01;99669.59;;;26.30;49.73
74561;BME280;62979;55.720;37.606;2023-08-07T04:25:28;99667.63;;;26.32;49.73
74561;BME280;62979;55.720;37.606;2023-08-07T04:27:55;99667.63;;;26.32;49.45
74561;BME280;62979;55.720;37.606;2023-08-07T04:30:23;99663.53;;;26.28;49.80
74561;BME280;62979;55.720;37.606;2023-08-07T04:32:51;99673.97;;;26.31;49.65
74561;BME280;62979;55.720;37.606;2023-08-07T04:35:19;99663.53;;;26.38;49.52
74561;BME280;62979;55.720;37.606;2023-08-07T04:37:46;99670.44;;;26.40;49.70
74561;BME280;62979;55.720;37.606;2023-08-07T04:40:13;99668.63;;;26.51;49.40
74561;BME280;62979;55.720;37.606;2023-08-07T04:42:40;99668.50;;;26.52;49.01
74561;BME280;62979;55.720;37.606;2023-08-07T04:45:07;99671.50;;;26.59;48.98
74561;BME280;62979;55.720;37.606;2023-08-07T04:47:37;99666.56;;;26.54;48.77
74561;BME280;62979;55.720;37.606;2023-08-07T04:50:04;99662.03;;;26.55;48.30
74561;BME280;62979;55.720;37.606;2023-08-07T04:52:31;99666.25;;;26.57;48.39
74561;BME280;62979;55.720;37.606;2023-08-07T04:54:58;99672.63;;;26.66;48.67
74561;BME280;62979;55.720;37.606;2023-08-07T04:57:25;99654.69;;;26.66;47.72
74561;BME280;62979;55.720;37.606;2023-08-07T04:59:52;99645.09;;;26.64;47.93
74561;BME280;62979;55.720;37.606;2023-08-07T05:02:19;99650.75;;;26.61;47.66
74561;BME280;62979;55.720;37.606;2023-08-07T05:04:47;99658.09;;;26.68;47.24
74561;BME280;62979;55.720;37.606;2023-08-07T05:07:14;99639.72;;;26.64;47.41
74561;BME280;62979;55.720;37.606;2023-08-07T05:09:41;99648.91;;;26.71;47.48
74561;BME280;62979;55.720;37.606;2023-08-07T05:12:08;99630.13;;;26.61;47.39
74561;BME280;62979;55.720;37.606;2023-08-07T05:14:35;99641.97;;;26.78;46.86
74561;BME280;62979;55.720;37.606;2023-08-07T05:17:02;99641.66;;;26.91;47.17
74561;BME280;62979;55.720;37.606;2023-08-07T05:19:30;99650.72;;;27.00;46.51
74561;BME280;62979;55.720;37.606;2023-08-07T05:21:58;99645.34;;;27.00;46.02
74561;BME280;62979;55.720;37.606;2023-08-07T05:24:25;99654.66;;;27.05;46.10
74561;BME280;62979;55.720;37.606;2023-08-07T05:26:52;99655.75;;;27.13;46.13
74561;BME280;62979;55.720;37.606;2023-08-07T05:29:18;99651.09;;;27.15;45.96
74561;BME280;62979;55.720;37.606;2023-08-07T05:31:45;99652.50;;;27.19;45.75
74561;BME280;62979;55.720;37.606;2023-08-07T05:34:12;99651.25;;;27.23;45.85
74561;BME280;62979;55.720;37.606;2023-08-07T05:36:39;99629.03;;;27.30;45.88
74561;BME280;62979;55.720;37.606;2023-08-07T05:39:08;99631.97;;;27.37;45.45
74561;BME280;62979;55.720;37.606;2023-08-07T05:41:34;99628.09;;;27.49;45.26
74561;BME280;62979;55.720;37.606;2023-08-07T05:44:03;99623.47;;;27.42;45.13
74561;BME280;62979;55.720;37.606;2023-08-07T05:46:30;99636.47;;;27.46;44.78
74561;BME280;62979;55.720;37.606;2023-08-07T05:48:57;99623.09;;;27.37;45.67
74561;BME280;62979;55.720;37.606;2023-08-07T05:51:24;99627.41;;;27.47;45.64
74561;BME280;62979;55.720;37.606;2023-08-07T05:53:52;99623.00;;;27.56;45.47
74561;BME280;62979;55.720;37.606;2023-08-07T05:56:20;99622.69;;;27.59;44.76
74561;BME280;62979;55.720;37.606;2023-08-07T05:58:47;99618.03;;;27.61;44.85
74561;BME280;62979;55.720;37.606;2023-08-07T06:01:14;99616.94;;;27.54;44.15
74561;BME280;62979;55.720;37.606;2023-08-07T06:03:42;99609.56;;;27.56;44.66
74561;BME280;62979;55.720;37.606;2023-08-07T06:06:09;99615.47;;;27.60;44.98
74561;BME280;62979;55.720;37.606;2023-08-07T06:08:36;99604.72;;;27.60;44.32
74561;BME280;62979;55.720;37.606;2023-08-07T06:11:03;99608.56;;;27.57;44.24
74561;BME280;62979;55.720;37.606;2023-08-07T06:13:34;99614.78;;;27.58;44.24
74561;BME280;62979;55.720;37.606;2023-08-07T06:16:03;99612.66;;;27.61;43.98
74561;BME280;62979;55.720;37.606;2023-08-07T06:18:31;99610.06;;;27.69;44.64
74561;BME280;62979;55.720;37.606;2023-08-07T06:20:59;99608.59;;;27.75;43.83
74561;BME280;62979;55.720;37.606;2023-08-07T06:23:26;99615.78;;;27.84;43.47
74561;BME280;62979;55.720;37.606;2023-08-07T06:25:53;99612.13;;;27.85;43.32
74561;BME280;62979;55.720;37.606;2023-08-07T06:28:20;99611.44;;;27.83;43.19
74561;BME280;62979;55.720;37.606;2023-08-07T06:30:49;99608.84;;;27.82;43.38
74561;BME280;62979;55.720;37.606;2023-08-07T06:33:16;99608.00;;;27.91;43.35
74561;BME280;62979;55.720;37.606;2023-08-07T06:35:43;99615.16;;;28.00;43.48
74561;BME280;62979;55.720;37.606;2023-08-07T06:38:09;99609.84;;;28.08;42.99
74561;BME280;62979;55.720;37.606;2023-08-07T06:40:37;99606.84;;;28.11;43.40
74561;BME280;62979;55.720;37.606;2023-08-07T06:43:05;99617.00;;;28.17;42.16
74561;BME280;62979;55.720;37.606;2023-08-07T06:45:31;99614.84;;;28.21;42.09
74561;BME280;62979;55.720;37.606;2023-08-07T06:48:00;99608.63;;;28.21;41.64
74561;BME280;62979;55.720;37.606;2023-08-07T06:50:26;99614.31;;;28.17;41.64
74561;BME280;62979;55.720;37.606;2023-08-07T06:52:53;99605.88;;;28.12;41.69
74561;BME280;62979;55.720;37.606;2023-08-07T06:55:20;99601.84;;;28.16;41.07
74561;BME280;62979;55.720;37.606;2023-08-07T06:57:47;99596.47;;;28.16;41.25
74561;BME280;62979;55.720;37.606;2023-08-07T07:00:15;99591.19;;;28.25;40.67
74561;BME280;62979;55.720;37.606;2023-08-07T07:02:44;99597.00;;;28.38;40.44
74561;BME280;62979;55.720;37.606;2023-08-07T07:05:12;99594.03;;;28.41;39.95
74561;BME280;62979;55.720;37.606;2023-08-07T07:07:39;99588.06;;;28.47;40.11
74561;BME280;62979;55.720;37.606;2023-08-07T07:10:07;99594.38;;;28.56;39.70
74561;BME280;62979;55.720;37.606;2023-08-07T07:12:34;99596.19;;;28.55;39.94
74561;BME280;62979;55.720;37.606;2023-08-07T07:15:01;99592.94;;;28.70;39.66
74561;BME280;62979;55.720;37.606;2023-08-07T07:17:28;99580.16;;;28.72;39.41
74561;BME280;62979;55.720;37.606;2023-08-07T07:19:55;99586.94;;;28.76;39.82
74561;BME280;62979;55.720;37.606;2023-08-07T07:22:24;99582.44;;;28.85;39.33
74561;BME280;62979;55.720;37.606;2023-08-07T07:24:51;99586.00;;;28.85;39.04
74561;BME280;62979;55.720;37.606;2023-08-07T07:27:17;99582.63;;;28.83;39.07
74561;BME280;62979;55.720;37.606;2023-08-07T07:29:44;99579.00;;;28.92;39.25
74561;BME280;62979;55.720;37.606;2023-08-07T07:32:11;99578.88;;;29.02;39.21
74561;BME280;62979;55.720;37.606;2023-08-07T07:34:38;99582.16;;;29.14;38.94
74561;BME280;62979;55.720;37.606;2023-08-07T07:37:05;99578.78;;;29.12;38.86
74561;BME280;62979;55.720;37.606;2023-08-07T07:39:34;99569.56;;;29.14;38.71
74561;BME280;62979;55.720;37.606;2023-08-07T07:42:01;99566.34;;;29.19;38.73
74561;BME280;62979;55.720;37.606;2023-08-07T07:44:28;99567.00;;;29.13;38.38
74561;BME280;62979;55.720;37.606;2023-08-07T07:46:55;99558.38;;;29.09;38.14
74561;BME280;62979;55.720;37.606;2023-08-07T07:49:22;99571.81;;;29.27;38.51
74561;BME280;62979;55.720;37.606;2023-08-07T07:51:49;99569.53;;;29.49;38.05
74561;BME280;62979;55.720;37.606;2023-08-07T07:54:16;99560.44;;;29.50;37.53
74561;BME280;62979;55.720;37.606;2023-08-07T07:56:44;99562.50;;;29.56;37.39
74561;BME280;62979;55.720;37.606;2023-08-07T07:59:12;99564.50;;;29.54;37.63
74561;BME280;62979;55.720;37.606;2023-08-07T08:01:39;99564.50;;;29.54;37.01
74561;BME280;62979;55.720;37.606;2023-08-07T08:04:06;99557.75;;;29.58;37.26
74561;BME280;62979;55.720;37.606;2023-08-07T08:06:35;99561.13;;;29.60;36.63
74561;BME280;62979;55.720;37.606;2023-08-07T08:09:02;99570.63;;;29.72;37.18
74561;BME280;62979;55.720;37.606;2023-08-07T08:11:30;99574.22;;;29.73;36.84
74561;BME280;62979;55.720;37.606;2023-08-07T08:13:58;99565.34;;;29.62;36.69
74561;BME280;62979;55.720;37.606;2023-08-07T08:16:25;99565.19;;;29.56;36.71
74561;BME280;62979;55.720;37.606;2023-08-07T08:18:52;99552.38;;;29.58;37.16
74561;BME280;62979;55.720;37.606;2023-08-07T08:21:19;99531.84;;;29.57;37.07
74561;BME280;62979;55.720;37.606;2023-08-07T08:23:46;99551.66;;;29.90;36.59
74561;BME280;62979;55.720;37.606;2023-08-07T08:26:13;99554.72;;;30.03;36.76
74561;BME280;62979;55.720;37.606;2023-08-07T08:28:40;99555.91;;;30.17;36.56
74561;BME280;62979;55.720;37.606;2023-08-07T08:31:08;99561.66;;;30.31;36.36
74561;BME280;62979;55.720;37.606;2023-08-07T08:33:35;99544.66;;;30.30;36.00
74561;BME280;62979;55.720;37.606;2023-08-07T08:36:02;99550.22;;;30.37;35.54
74561;BME280;62979;55.720;37.606;2023-08-07T08:38:29;99540.09;;;30.39;35.52
74561;BME280;62979;55.720;37.606;2023-08-07T08:41:01;99550.22;;;30.45;35.59
74561;BME280;62979;55.720;37.606;2023-08-07T08:43:34;99537.38;;;30.55;35.09
74561;BME280;62979;55.720;37.606;2023-08-07T08:46:03;99527.97;;;30.51;35.12
74561;BME280;62979;55.720;37.606;2023-08-07T08:48:34;99540.06;;;30.55;35.49
74561;BME280;62979;55.720;37.606;2023-08-07T08:51:03;99535.00;;;30.60;35.79
74561;BME280;62979;55.720;37.606;2023-08-07T08:53:32;99534.00;;;30.69;34.66
74561;BME280;62979;55.720;37.606;2023-08-07T08:56:01;99518.31;;;30.73;34.63
74561;BME280;62979;55.720;37.606;2023-08-07T08:58:29;99518.81;;;30.85;35.02
74561;BME280;62979;55.720;37.606;2023-08-07T09:00:57;99518.06;;;30.99;34.93
74561;BME280;62979;55.720;37.606;2023-08-07T09:03:24;99510.34;;;30.96;33.76
74561;BME280;62979;55.720;37.606;2023-08-07T09:05:57;99507.97;;;30.93;33.44
74561;BME280;62979;55.720;37.606;2023-08-07T09:08:25;99494.31;;;30.86;34.19
74561;BME280;62979;55.720;37.606;2023-08-07T09:10:55;99503.94;;;30.97;33.93
74561;BME280;62979;55.720;37.606;2023-08-07T09:13:23;99507.06;;;31.09;33.92
74561;BME280;62979;55.720;37.606;2023-08-07T09:15:51;99508.56;;;31.20;33.74
74561;BME280;62979;55.720;37.606;2023-08-07T09:18:19;99510.03;;;31.30;33.19
74561;BME280;62979;55.720;37.606;2023-08-07T09:20:46;99507.16;;;31.32;33.19
74561;BME280;62979;55.720;37.606;2023-08-07T09:23:15;99510.34;;;31.35;33.24
74561;BME280;62979;55.720;37.606;2023-08-07T09:25:43;99484.81;;;31.46;33.47
74561;BME280;62979;55.720;37.606;2023-08-07T09:28:11;99500.28;;;31.61;32.84
74561;BME280;62979;55.720;37.606;2023-08-07T09:30:38;99495.13;;;31.74;32.84
74561;BME280;62979;55.720;37.606;2023-08-07T09:33:07;99500.53;;;31.74;32.67
74561;BME280;62979;55.720;37.606;2023-08-07T09:35:35;99474.16;;;31.76;32.81
74561;BME280;62979;55.720;37.606;2023-08-07T09:38:02;99488.28;;;31.86;32.81
74561;BME280;62979;55.720;37.606;2023-08-07T09:40:31;99488.66;;;32.06;32.81
74561;BME280;62979;55.720;37.606;2023-08-07T09:43:00;99483.94;;;32.23;32.57
74561;BME280;62979;55.720;37.606;2023-08-07T09:45:28;99479.22;;;32.40;32.56
74561;BME280;62979;55.720;37.606;2023-08-07T09:47:57;99486.19;;;32.57;31.81
74561;BME280;62979;55.720;37.606;2023-08-07T09:50:25;99485.09;;;32.67;31.51
74561;BME280;62979;55.720;37.606;2023-08-07T09:52:54;99484.41;;;32.79;31.00
74561;BME280;62979;55.720;37.606;2023-08-07T09:55:21;99461.53;;;32.82;30.90
74561;BME280;62979;55.720;37.606;2023-08-07T09:57:50;99476.94;;;32.96;31.27
74561;BME280;62979;55.720;37.606;2023-08-07T10:00:17;99451.56;;;33.12;30.70
74561;BME280;62979;55.720;37.606;2023-08-07T10:02:46;99463.56;;;33.39;30.44
74561;BME280;62979;55.720;37.606;2023-08-07T10:05:15;99471.69;;;33.76;29.87
74561;BME280;62979;55.720;37.606;2023-08-07T10:07:43;99464.59;;;34.18;29.01
74561;BME280;62979;55.720;37.606;2023-08-07T10:10:10;99460.66;;;34.48;28.49
74561;BME280;62979;55.720;37.606;2023-08-07T10:12:37;99464.91;;;34.92;27.81
74561;BME280;62979;55.720;37.606;2023-08-07T10:15:08;99463.03;;;35.34;27.18
74561;BME280;62979;55.720;37.606;2023-08-07T10:17:35;99447.00;;;35.60;26.53
74561;BME280;62979;55.720;37.606;2023-08-07T10:20:03;99459.22;;;35.90;26.19
74561;BME280;62979;55.720;37.606;2023-08-07T10:22:34;99453.78;;;36.10;25.93
74561;BME280;62979;55.720;37.606;2023-08-07T10:25:06;99453.16;;;36.41;25.78
74561;BME280;62979;55.720;37.606;2023-08-07T10:27:37;99453.09;;;36.75;25.14
74561;BME280;62979;55.720;37.606;2023-08-07T10:30:11;99451.34;;;37.00;24.84
74561;BME280;62979;55.720;37.606;2023-08-07T10:32:43;99444.19;;;37.13;24.37
74561;BME280;62979;55.720;37.606;2023-08-07T10:35:23;99428.03;;;37.56;23.78
74561;BME280;62979;55.720;37.606;2023-08-07T10:37:51;99439.44;;;37.78;23.78
74561;BME280;62979;55.720;37.606;2023-08-07T10:40:19;99447.28;;;38.00;23.89
74561;BME280;62979;55.720;37.606;2023-08-07T10:43:12;99443.25;;;38.27;22.82
74561;BME280;62979;55.720;37.606;2023-08-07T10:45:44;99435.94;;;38.21;23.26
74561;BME280;62979;55.720;37.606;2023-08-07T10:48:12;99425.13;;;38.58;23.03
74561;BME280;62979;55.720;37.606;2023-08-07T10:50:50;99425.69;;;39.15;22.50
74561;BME280;62979;55.720;37.606;2023-08-07T10:53:28;99416.34;;;39.23;22.58
74561;BME280;62979;55.720;37.606;2023-08-07T10:55:56;99427.97;;;39.37;22.51
74561;BME280;62979;55.720;37.606;2023-08-07T10:58:25;99410.91;;;39.53;21.35
74561;BME280;62979;55.720;37.606;2023-08-07T11:01:21;99396.28;;;39.71;21.63
74561;BME280;62979;55.720;37.606;2023-08-07T11:03:51;99386.41;;;39.58;21.88
74561;BME280;62979;55.720;37.606;2023-08-07T11:06:22;99397.66;;;40.16;20.97
74561;BME280;62979;55.720;37.606;2023-08-07T11:08:52;99399.84;;;40.26;20.99
74561;BME280;62979;55.720;37.606;2023-08-07T11:11:19;99395.06;;;40.44;20.58
74561;BME280;62979;55.720;37.606;2023-08-07T11:13:46;99396.00;;;40.15;20.66
74561;BME280;62979;55.720;37.606;2023-08-07T11:16:13;99394.91;;;40.16;21.09
74561;BME280;62979;55.720;37.606;2023-08-07T11:18:43;99394.66;;;40.64;20.43
74561;BME280;62979;55.720;37.606;2023-08-07T11:21:11;99393.47;;;40.60;21.00
74561;BME280;62979;55.720;37.606;2023-08-07T11:23:39;99378.78;;;40.90;20.23
74561;BME280;62979;55.720;37.606;2023-08-07T11:26:07;99394.69;;;41.05;20.08
74561;BME280;62979;55.720;37.606;2023-08-07T11:28:35;99389.69;;;41.31;19.86
74561;BME280;62979;55.720;37.606;2023-08-07T11:31:03;99376.16;;;41.24;19.52
74561;BME280;62979;55.720;37.606;2023-08-07T11:33:30;99377.34;;;41.45;19.54
74561;BME280;62979;55.720;37.606;2023-08-07T11:35:59;99384.72;;;41.90;19.12
74561;BME280;62979;55.720;37.606;2023-08-07T11:38:31;99385.53;;;42.24;19.25
74561;BME280;62979;55.720;37.606;2023-08-07T11:41:00;99378.69;;;42.27;19.29
74561;BME280;62979;55.720;37.606;2023-08-07T11:43:28;99380.88;;;42.25;18.78
74561;BME280;62979;55.720;37.606;2023-08-07T11:45:59;99383.25;;;42.38;18.60
74561;BME280;62979;55.720;37.606;2023-08-07T11:48:29;99376.75;;;42.44;18.74
74561;BME280;62979;55.720;37.606;2023-08-07T11:50:59;99368.88;;;42.53;18.08
74561;BME280;62979;55.720;37.606;2023-08-07T11:53:29;99368.97;;;42.58;18.68
74561;BME280;62979;55.720;37.606;2023-08-07T11:55:59;99365.03;;;42.32;18.71
74561;BME280;62979;55.720;37.606;2023-08-07T11:58:35;99356.13;;;42.86;18.80
74561;BME280;62979;55.720;37.606;2023-08-07T12:01:04;99360.47;;;43.31;18.17
74561;BME280;62979;55.720;37.606;2023-08-07T12:03:34;99344.72;;;43.26;17.84
74561;BME280;62979;55.720;37.606;2023-08-07T12:06:05;99342.22;;;42.97;18.02
74561;BME280;62979;55.720;37.606;2023-08-07T12:08:34;99348.44;;;42.88;18.00
74561;BME280;62979;55.720;37.606;2023-08-07T12:11:03;99343.81;;;43.48;17.61
74561;BME280;62979;55.720;37.606;2023-08-07T12:13:31;99341.09;;;43.80;17.60
74561;BME280;62979;55.720;37.606;2023-08-07T12:16:01;99336.03;;;44.09;17.44
74561;BME280;62979;55.720;37.606;2023-08-07T12:18:29;99332.28;;;44.26;17.62
74561;BME280;62979;55.720;37.606;2023-08-07T12:20:59;99328.38;;;44.16;17.44
74561;BME280;62979;55.720;37.606;2023-08-07T12:23:32;99339.66;;;44.10;17.48
74561;BME280;62979;55.720;37.606;2023-08-07T12:25:59;99331.38;;;44.10;17.24
74561;BME280;62979;55.720;37.606;2023-08-07T12:28:27;99325.13;;;44.25;17.17
74561;BME280;62979;55.720;37.606;2023-08-07T12:30:54;99320.44;;;44.25;17.05
74561;BME280;62979;55.720;37.606;2023-08-07T12:33:21;99329.91;;;44.39;16.74
74561;BME280;62979;55.720;37.606;2023-08-07T12:35:48;99330.53;;;44.62;16.92
74561;BME280;62979;55.720;37.606;2023-08-07T12:38:15;99324.47;;;44.70;16.92
74561;BME280;62979;55.720;37.606;2023-08-07T12:40:44;99309.03;;;44.69;16.86
74561;BME280;62979;55.720;37.606;2023-08-07T12:43:11;99285.13;;;45.05;16.05
74561;BME280;62979;55.720;37.606;2023-08-07T12:45:38;99316.63;;;45.15;16.49
74561;BME280;62979;55.720;37.606;2023-08-07T12:48:05;99313.84;;;45.10;16.54
74561;BME280;62979;55.720;37.606;2023-08-07T12:50:32;99300.44;;;44.60;16.93
74561;BME280;62979;55.720;37.606;2023-08-07T12:53:00;99302.16;;;44.14;17.53
74561;BME280;62979;55.720;37.606;2023-08-07T12:55:27;99317.44;;;44.32;17.12